Ship Status Report: callsign BAREU51

sailwx.info

Track history (hours):
 
Tides and Currents Weather Stations Pressure Air Temp Water Temp Dewpoint Dewpoint Depression Visibility Wind Speed Wind Dir Waves Ship Positions

Callsign BAREU51 (name unknown)

Last reported at 2017-May-24 17:00 UTC. Time now 2017-May-24 17:32 UTC.
Position N 44°24' E 008°54'.

Barometer 1011.6 mb
Air temperature 21.4 ° C

Date/timePositionNaut miles runAvg speedWind from/ knotsBaromVisibWave heightAir tempDewpointWater temp
2017-May-24 17:00N 44°24' E 008°54'1514.8 1011.6 21.4
2017-May-24 16:00N 44°12' E 009°06'2625.5 1011.3 20.4
2017-May-24 15:00N 43°48' E 009°18'2222.2 1012.0 20.1
2017-May-24 14:00N 43°30' E 009°36'2222.3 1012.6 19.9
2017-May-24 13:00N 43°12' E 009°54'2424.4 1013.2 19.8
2017-May-24 12:00N 42°48' E 010°00'1817.9 1013.4 20.7
2017-May-24 11:00N 42°36' E 010°18'2222.4 1013.6 21.7
2017-May-24 10:00N 42°18' E 010°36'2727.5 1013.9 21.6
2017-May-24 09:00N 41°54' E 010°54'2020.1 1013.7 20.8
2017-May-24 08:00N 41°36' E 011°06'2625.6 1013.5 20.6
2017-May-24 07:00N 41°12' E 011°18'2020.1 1013.3 20.5
2017-May-24 06:00N 40°54' E 011°30'2322.6 1013.0 20.3
2017-May-24 05:00N 40°36' E 011°48'2625.7 1012.9 19.3
2017-May-24 04:00N 40°12' E 012°00'2020.2 1012.8 18.8
2017-May-24 03:00N 39°54' E 012°12'2827.7 1012.9 18.9
2017-May-24 02:00N 39°30' E 012°30'2020.3 1013.1 19.6
2017-May-24 01:00N 39°12' E 012°42'2625.7 1013.1 19.7
2017-May-24 00:00N 38°48' E 012°54'2322.8 1013.4 19.6
2017-May-23 23:00N 38°30' E 013°12'2020.3 1013.9 20.0
2017-May-23 22:00N 38°12' E 013°24'6 1.2 1014.0 19.8
2017-May-23 17:00N 38°06' E 013°24'1312.9 1013.4 22.2
2017-May-23 16:00N 38°18' E 013°18'2625.8 1013.1 22.1
2017-May-23 15:00N 38°42' E 013°06'2322.8 1013.3 23.2
2017-May-23 14:00N 39°00' E 012°48'2322.8 1013.6 23.8
2017-May-23 13:00N 39°18' E 012°30'2020.2 1013.8 23.2
2017-May-23 12:00N 39°36' E 012°18'2322.7 1014.2 23.1
2017-May-23 11:00N 39°54' E 012°00'2827.7 1014.3 22.9
2017-May-23 10:00N 40°18' E 011°42'2322.6 1014.1 22.2
2017-May-23 09:00N 40°36' E 011°24'2020.2 1014.0 21.1
2017-May-23 08:00N 40°54' E 011°12'2322.5 1013.8 21.1
2017-May-23 07:00N 41°12' E 010°54'2322.5 1013.7 20.1
2017-May-23 06:00N 41°30' E 010°36'2020.1 1013.3 19.0
2017-May-23 05:00N 41°48' E 010°24'2727.5 1013.1 18.9
2017-May-23 04:00N 42°12' E 010°06'2020.1 1012.7 18.8
2017-May-23 03:00N 42°30' E 009°54'2424.4 1012.6 18.3
2017-May-23 02:00N 42°54' E 010°00'1918.5 1012.5 18.7
2017-May-23 01:00N 43°12' E 009°54'2222.3 1012.6 18.0
2017-May-23 00:00N 43°30' E 009°36'2727.3 1012.6 17.8
2017-May-22 23:00N 43°54' E 009°18'2020.0 1012.5 18.7
2017-May-22 22:00N 44°12' E 009°06'15 1.1 1012.1 19.1
2017-May-22 08:00N 44°24' E 008°54'0 0.0 1014.1 22.4
2017-May-21 20:00N 44°24' E 008°54'1010.5 1014.7 19.6
2017-May-21 19:00N 44°18' E 009°06'2625.5 1013.9 19.5
2017-May-21 18:00N 43°54' E 009°18'2020.0 1013.0 19.5
2017-May-21 17:00N 43°36' E 009°30'2222.2 1013.2 19.7
2017-May-21 16:00N 43°18' E 009°48'2020.0 1013.0 19.8
2017-May-21 15:00N 43°00' E 010°00'2020.0 1012.6 20.1
2017-May-21 14:00N 42°42' E 010°12'2222.4 1012.4 21.1
2017-May-21 13:00N 42°24' E 010°30'2222.4 1012.6 20.9
2017-May-21 12:00N 42°06' E 010°48'2625.6 1012.8 20.9
2017-May-21 11:00N 41°42' E 011°00'2020.1 1012.2 20.7
2017-May-21 10:00N 41°24' E 011°12'2020.1 1011.8 20.1
2017-May-21 09:00N 41°06' E 011°24'2020.2 1011.0 19.9
2017-May-21 08:00N 40°48' E 011°36'2322.6 1010.3 19.0
2017-May-21 07:00N 40°30' E 011°54'2020.2 1009.7 18.9
2017-May-21 06:00N 40°12' E 012°06'2625.7 1009.5 18.5
2017-May-21 05:00N 39°48' E 012°18'2020.2 1009.4 18.1
2017-May-21 04:00N 39°30' E 012°30'2020.3 1009.5 17.8
2017-May-21 03:00N 39°12' E 012°42'2020.3 1009.8 17.9
2017-May-21 02:00N 38°54' E 012°54'2020.3 1010.7 18.2
2017-May-21 01:00N 38°36' E 013°06'2322.9 1011.3 19.1
2017-May-21 00:00N 38°18' E 013°24'12 2.4 1012.0 19.0
2017-May-20 19:00N 38°06' E 013°24'6 6.0 1014.3 18.9
2017-May-20 18:00N 38°12' E 013°24'2020.3 1014.0 19.2
2017-May-20 17:00N 38°30' E 013°12'2322.8 1013.9 19.8
2017-May-20 16:00N 38°48' E 012°54'2322.8 1014.0 19.8
2017-May-20 15:00N 39°06' E 012°36'2322.8 1014.2 19.8
2017-May-20 14:00N 39°24' E 012°18'2625.8 1014.1 20.1
2017-May-20 13:00N 39°42' E 011°54'2322.7 1013.8 20.0
2017-May-20 12:00N 40°00' E 011°36'2322.7 1013.8 19.7
2017-May-20 11:00N 40°18' E 011°18'2322.6 1013.9 19.4
2017-May-20 10:00N 40°36' E 011°00'2322.6 1013.8 19.2
2017-May-20 09:00N 40°54' E 010°42'2322.5 1013.0 18.3
2017-May-20 08:00N 41°12' E 010°24'2322.5 1012.6 17.5
2017-May-20 07:00N 41°30' E 010°06'2424.4 1010.5 17.6
2017-May-20 06:00N 41°54' E 010°00'1918.5 1011.0 19.7
2017-May-20 05:00N 42°12' E 009°54'2424.0 1009.7 18.7
2017-May-20 04:00N 42°36' E 009°54'2424.4 1009.1 18.4
2017-May-20 03:00N 43°00' E 010°00'2222.3 1008.1 18.3
2017-May-20 02:00N 43°18' E 009°42'2222.2 1007.6 17.4
2017-May-20 01:00N 43°36' E 009°24'2020.0 1007.3 17.4
2017-May-20 00:00N 43°54' E 009°12'2625.5 1008.0 17.7
2017-May-19 23:00N 44°18' E 009°00'7 1.5 1009.1 17.7
2017-May-19 18:00N 44°24' E 008°54'1514.8 1009.5 18.7
2017-May-19 17:00N 44°12' E 009°06'2020.0 1009.3 19.3
2017-May-19 16:00N 43°54' E 009°18'2727.3 1008.7 19.3
2017-May-19 15:00N 43°30' E 009°36'2222.3 1009.2 20.9
2017-May-19 14:00N 43°12' E 009°54'1918.5 1009.6 21.5
2017-May-19 13:00N 42°54' E 010°00'2222.3 1009.5 21.8
2017-May-19 12:00N 42°36' E 010°18'2222.4 1010.0 23.0
2017-May-19 11:00N 42°18' E 010°36'2727.5 1010.3 23.1
2017-May-19 10:00N 41°54' E 010°54'2020.1 1010.1 23.1
2017-May-19 09:00N 41°36' E 011°06'2222.5 1010.0 22.9
2017-May-19 08:00N 41°18' E 011°24'2322.5 1010.2 22.5
2017-May-19 07:00N 41°00' E 011°42'2625.6 1010.4 21.9
2017-May-19 06:00N 40°42' E 012°06'2020.2 1010.7 21.5
2017-May-19 05:00N 40°24' E 012°18'2322.6 1010.6 20.3
2017-May-19 04:00N 40°06' E 012°36'2625.7 1010.5 20.1
2017-May-19 03:00N 39°42' E 012°48'2020.2 1010.3 20.1
2017-May-19 02:00N 39°24' E 013°00'2625.7 1010.5 20.1
2017-May-19 01:00N 39°00' E 013°12'2424.5 1010.4 20.3
2017-May-19 00:00N 38°36' E 013°18'1918.6 1010.2 20.2
2017-May-18 23:00N 38°18' E 013°24'12 2.4 1010.4 20.8
2017-May-18 18:00N 38°06' E 013°24'2020.3 1010.9 21.3
2017-May-18 17:00N 38°24' E 013°12'2020.3 1009.7 22.1
2017-May-18 16:00N 38°42' E 013°00'2827.8 1009.9 22.7
2017-May-18 15:00N 39°06' E 012°42'2322.8 1010.3 23.3
2017-May-18 14:00N 39°24' E 012°24'2020.2 1010.4 23.2
2017-May-18 13:00N 39°42' E 012°12'2322.7 1010.8 23.2
2017-May-18 12:00N 40°00' E 011°54'2020.2 1010.9 22.9
2017-May-18 11:00N 40°18' E 011°42'2827.6 1011.5 23.1
2017-May-18 10:00N 40°42' E 011°24'2322.6 1011.7 21.6
2017-May-18 09:00N 41°00' E 011°06'2020.1 1011.4 21.0
2017-May-18 08:00N 41°18' E 010°54'2222.5 1011.3 20.8
2017-May-18 07:00N 41°36' E 010°36'2222.5 1011.2 19.7
2017-May-18 06:00N 41°54' E 010°18'2222.4 1010.9 19.6
2017-May-18 05:00N 42°12' E 010°00'2424.4 1010.8 19.9
2017-May-18 04:00N 42°36' E 009°54'2424.4 1010.7 19.8
2017-May-18 03:00N 43°00' E 010°00'2020.0 1010.9 19.9
2017-May-18 02:00N 43°18' E 009°48'2222.2 1011.1 20.1
2017-May-18 01:00N 43°36' E 009°30'2625.5 1010.8 21.1
2017-May-18 00:00N 44°00' E 009°18'2222.2 1011.8 20.9
2017-May-17 23:00N 44°18' E 009°00'6 1.0 1012.7 20.8
2017-May-17 17:00N 44°24' E 009°00'2525.5 1013.6 23.2
2017-May-17 16:00N 44°00' E 009°12'2222.2 1013.5 22.4
2017-May-17 15:00N 43°42' E 009°30'2222.2 1013.6 23.0
2017-May-17 14:00N 43°24' E 009°48'2020.0 1013.9 22.0
2017-May-17 13:00N 43°06' E 010°00'2424.4 1014.3 22.7
2017-May-17 12:00N 42°42' E 010°06'2121.4 1014.5 21.9
2017-May-17 11:00N 42°30' E 010°30'2625.6 1014.9 22.6
2017-May-17 10:00N 42°06' E 010°42'2020.1 1015.0 21.4
2017-May-17 09:00N 41°48' E 010°54'2222.5 1015.3 21.1
2017-May-17 08:00N 41°30' E 011°12'2625.6 1015.2 20.2
2017-May-17 07:00N 41°06' E 011°24'2020.2 1014.8 19.9
2017-May-17 06:00N 40°48' E 011°36'2827.6 1015.0 20.1
2017-May-17 05:00N 40°24' E 011°54'2020.2 1014.8 19.4
2017-May-17 04:00N 40°06' E 012°06'2020.2 1014.9 19.3
2017-May-17 03:00N 39°48' E 012°18'2625.7 1014.9 19.7
2017-May-17 02:00N 39°24' E 012°30'2322.8 1014.6 20.0
2017-May-17 01:00N 39°06' E 012°48'2020.3 1015.0 20.2
2017-May-17 00:00N 38°48' E 013°00'2625.8 1015.2 19.8
2017-May-16 23:00N 38°24' E 013°12'2020.3 1016.0 19.7
2017-May-16 22:00N 38°06' E 013°24'0 0.0 1016.5 19.4
2017-May-16 18:00N 38°06' E 013°24'0 0.0 1015.8 19.9
2017-May-16 17:00N 38°06' E 013°24'1312.9 1015.5 20.6
2017-May-16 16:00N 38°18' E 013°18'2020.3 1015.4 21.3
2017-May-16 15:00N 38°36' E 013°06'2827.8 1015.6 21.7
2017-May-16 14:00N 39°00' E 012°48'2322.8 1015.9 21.8
2017-May-16 13:00N 39°18' E 012°30'2322.7 1016.6 22.4
2017-May-16 12:00N 39°36' E 012°12'2020.2 1017.2 22.1
2017-May-16 11:00N 39°54' E 012°00'2827.7 1017.6 21.9
2017-May-16 10:00N 40°18' E 011°42'2020.2 1017.8 21.2
2017-May-16 09:00N 40°36' E 011°30'2322.6 1018.0 20.0
2017-May-16 08:00N 40°54' E 011°12'2322.5 1018.1 19.3
2017-May-16 07:00N 41°12' E 010°54'2322.5 1018.2 19.0
2017-May-16 06:00N 41°30' E 010°36'2625.6 1018.5 18.8
2017-May-16 05:00N 41°54' E 010°24'2222.4 1018.7 19.0
2017-May-16 04:00N 42°12' E 010°06'2020.1 1019.5 17.8
2017-May-16 03:00N 42°30' E 009°54'2424.4 1019.7 18.0
2017-May-16 02:00N 42°54' E 010°00'2625.5 1019.8 17.9
2017-May-16 01:00N 43°18' E 009°48'2222.2 1019.9 17.8
2017-May-16 00:00N 43°36' E 009°30'2222.2 1020.4 17.9
2017-May-15 23:00N 43°54' E 009°12'2020.0 1020.6 18.0
2017-May-15 22:00N 44°12' E 009°00'   1020.5 18.8
Track history (hours):
 
Tides and Currents Weather Stations Pressure Air Temp Water Temp Dewpoint Dewpoint Depression Visibility Wind Speed Wind Dir Waves Ship Positions

Callsign BAREU51 (name unknown)

Last reported at 2017-May-24 17:00 UTC. Time now 2017-May-24 17:32 UTC.
Position N 44°24' E 008°54'.

Barometer 1011.6 mb
Air temperature 21.4 ° C

Date/timePositionNaut miles runAvg speedWind from/ knotsBaromVisibWave heightAir tempDewpointWater temp
2017-May-24 17:00N 44°24' E 008°54'1514.8 1011.6 21.4
2017-May-24 16:00N 44°12' E 009°06'2625.5 1011.3 20.4
2017-May-24 15:00N 43°48' E 009°18'2222.2 1012.0 20.1
2017-May-24 14:00N 43°30' E 009°36'2222.3 1012.6 19.9
2017-May-24 13:00N 43°12' E 009°54'2424.4 1013.2 19.8
2017-May-24 12:00N 42°48' E 010°00'1817.9 1013.4 20.7
2017-May-24 11:00N 42°36' E 010°18'2222.4 1013.6 21.7
2017-May-24 10:00N 42°18' E 010°36'2727.5 1013.9 21.6
2017-May-24 09:00N 41°54' E 010°54'2020.1 1013.7 20.8
2017-May-24 08:00N 41°36' E 011°06'2625.6 1013.5 20.6
2017-May-24 07:00N 41°12' E 011°18'2020.1 1013.3 20.5
2017-May-24 06:00N 40°54' E 011°30'2322.6 1013.0 20.3
2017-May-24 05:00N 40°36' E 011°48'2625.7 1012.9 19.3
2017-May-24 04:00N 40°12' E 012°00'2020.2 1012.8 18.8
2017-May-24 03:00N 39°54' E 012°12'2827.7 1012.9 18.9
2017-May-24 02:00N 39°30' E 012°30'2020.3 1013.1 19.6
2017-May-24 01:00N 39°12' E 012°42'2625.7 1013.1 19.7
2017-May-24 00:00N 38°48' E 012°54'2322.8 1013.4 19.6
2017-May-23 23:00N 38°30' E 013°12'2020.3 1013.9 20.0
2017-May-23 22:00N 38°12' E 013°24'6 1.2 1014.0 19.8
2017-May-23 17:00N 38°06' E 013°24'1312.9 1013.4 22.2
2017-May-23 16:00N 38°18' E 013°18'2625.8 1013.1 22.1
2017-May-23 15:00N 38°42' E 013°06'2322.8 1013.3 23.2
2017-May-23 14:00N 39°00' E 012°48'2322.8 1013.6 23.8
2017-May-23 13:00N 39°18' E 012°30'2020.2 1013.8 23.2
2017-May-23 12:00N 39°36' E 012°18'2322.7 1014.2 23.1
2017-May-23 11:00N 39°54' E 012°00'2827.7 1014.3 22.9
2017-May-23 10:00N 40°18' E 011°42'2322.6 1014.1 22.2
2017-May-23 09:00N 40°36' E 011°24'2020.2 1014.0 21.1
2017-May-23 08:00N 40°54' E 011°12'2322.5 1013.8 21.1
2017-May-23 07:00N 41°12' E 010°54'2322.5 1013.7 20.1
2017-May-23 06:00N 41°30' E 010°36'2020.1 1013.3 19.0
2017-May-23 05:00N 41°48' E 010°24'2727.5 1013.1 18.9
2017-May-23 04:00N 42°12' E 010°06'2020.1 1012.7 18.8
2017-May-23 03:00N 42°30' E 009°54'2424.4 1012.6 18.3
2017-May-23 02:00N 42°54' E 010°00'1918.5 1012.5 18.7
2017-May-23 01:00N 43°12' E 009°54'2222.3 1012.6 18.0
2017-May-23 00:00N 43°30' E 009°36'2727.3 1012.6 17.8
2017-May-22 23:00N 43°54' E 009°18'2020.0 1012.5 18.7
2017-May-22 22:00N 44°12' E 009°06'15 1.1 1012.1 19.1
2017-May-22 08:00N 44°24' E 008°54'0 0.0 1014.1 22.4
2017-May-21 20:00N 44°24' E 008°54'1010.5 1014.7 19.6
2017-May-21 19:00N 44°18' E 009°06'2625.5 1013.9 19.5
2017-May-21 18:00N 43°54' E 009°18'2020.0 1013.0 19.5
2017-May-21 17:00N 43°36' E 009°30'2222.2 1013.2 19.7
2017-May-21 16:00N 43°18' E 009°48'2020.0 1013.0 19.8
2017-May-21 15:00N 43°00' E 010°00'2020.0 1012.6 20.1
2017-May-21 14:00N 42°42' E 010°12'2222.4 1012.4 21.1
2017-May-21 13:00N 42°24' E 010°30'2222.4 1012.6 20.9
2017-May-21 12:00N 42°06' E 010°48'2625.6 1012.8 20.9
2017-May-21 11:00N 41°42' E 011°00'2020.1 1012.2 20.7
2017-May-21 10:00N 41°24' E 011°12'2020.1 1011.8 20.1
2017-May-21 09:00N 41°06' E 011°24'2020.2 1011.0 19.9
2017-May-21 08:00N 40°48' E 011°36'2322.6 1010.3 19.0
2017-May-21 07:00N 40°30' E 011°54'2020.2 1009.7 18.9
2017-May-21 06:00N 40°12' E 012°06'2625.7 1009.5 18.5
2017-May-21 05:00N 39°48' E 012°18'2020.2 1009.4 18.1
2017-May-21 04:00N 39°30' E 012°30'2020.3 1009.5 17.8
2017-May-21 03:00N 39°12' E 012°42'2020.3 1009.8 17.9
2017-May-21 02:00N 38°54' E 012°54'2020.3 1010.7 18.2
2017-May-21 01:00N 38°36' E 013°06'2322.9 1011.3 19.1
2017-May-21 00:00N 38°18' E 013°24'12 2.4 1012.0 19.0
2017-May-20 19:00N 38°06' E 013°24'6 6.0 1014.3 18.9
2017-May-20 18:00N 38°12' E 013°24'2020.3 1014.0 19.2
2017-May-20 17:00N 38°30' E 013°12'2322.8 1013.9 19.8
2017-May-20 16:00N 38°48' E 012°54'2322.8 1014.0 19.8
2017-May-20 15:00N 39°06' E 012°36'2322.8 1014.2 19.8
2017-May-20 14:00N 39°24' E 012°18'2625.8 1014.1 20.1
2017-May-20 13:00N 39°42' E 011°54'2322.7 1013.8 20.0
2017-May-20 12:00N 40°00' E 011°36'2322.7 1013.8 19.7
2017-May-20 11:00N 40°18' E 011°18'2322.6 1013.9 19.4
2017-May-20 10:00N 40°36' E 011°00'2322.6 1013.8 19.2
2017-May-20 09:00N 40°54' E 010°42'2322.5 1013.0 18.3
2017-May-20 08:00N 41°12' E 010°24'2322.5 1012.6 17.5
2017-May-20 07:00N 41°30' E 010°06'2424.4 1010.5 17.6
2017-May-20 06:00N 41°54' E 010°00'1918.5 1011.0 19.7
2017-May-20 05:00N 42°12' E 009°54'2424.0 1009.7 18.7
2017-May-20 04:00N 42°36' E 009°54'2424.4 1009.1 18.4
2017-May-20 03:00N 43°00' E 010°00'2222.3 1008.1 18.3
2017-May-20 02:00N 43°18' E 009°42'2222.2 1007.6 17.4
2017-May-20 01:00N 43°36' E 009°24'2020.0 1007.3 17.4
2017-May-20 00:00N 43°54' E 009°12'2625.5 1008.0 17.7
2017-May-19 23:00N 44°18' E 009°00'7 1.5 1009.1 17.7
2017-May-19 18:00N 44°24' E 008°54'1514.8 1009.5 18.7
2017-May-19 17:00N 44°12' E 009°06'2020.0 1009.3 19.3
2017-May-19 16:00N 43°54' E 009°18'2727.3 1008.7 19.3
2017-May-19 15:00N 43°30' E 009°36'2222.3 1009.2 20.9
2017-May-19 14:00N 43°12' E 009°54'1918.5 1009.6 21.5
2017-May-19 13:00N 42°54' E 010°00'2222.3 1009.5 21.8
2017-May-19 12:00N 42°36' E 010°18'2222.4 1010.0 23.0
2017-May-19 11:00N 42°18' E 010°36'2727.5 1010.3 23.1
2017-May-19 10:00N 41°54' E 010°54'2020.1 1010.1 23.1
2017-May-19 09:00N 41°36' E 011°06'2222.5 1010.0 22.9
2017-May-19 08:00N 41°18' E 011°24'2322.5 1010.2 22.5
2017-May-19 07:00N 41°00' E 011°42'2625.6 1010.4 21.9
2017-May-19 06:00N 40°42' E 012°06'2020.2 1010.7 21.5
2017-May-19 05:00N 40°24' E 012°18'2322.6 1010.6 20.3
2017-May-19 04:00N 40°06' E 012°36'2625.7 1010.5 20.1
2017-May-19 03:00N 39°42' E 012°48'2020.2 1010.3 20.1
2017-May-19 02:00N 39°24' E 013°00'2625.7 1010.5 20.1
2017-May-19 01:00N 39°00' E 013°12'2424.5 1010.4 20.3
2017-May-19 00:00N 38°36' E 013°18'1918.6 1010.2 20.2
2017-May-18 23:00N 38°18' E 013°24'12 2.4 1010.4 20.8
2017-May-18 18:00N 38°06' E 013°24'2020.3 1010.9 21.3
2017-May-18 17:00N 38°24' E 013°12'2020.3 1009.7 22.1
2017-May-18 16:00N 38°42' E 013°00'2827.8 1009.9 22.7
2017-May-18 15:00N 39°06' E 012°42'2322.8 1010.3 23.3
2017-May-18 14:00N 39°24' E 012°24'2020.2 1010.4 23.2
2017-May-18 13:00N 39°42' E 012°12'2322.7 1010.8 23.2
2017-May-18 12:00N 40°00' E 011°54'2020.2 1010.9 22.9
2017-May-18 11:00N 40°18' E 011°42'2827.6 1011.5 23.1
2017-May-18 10:00N 40°42' E 011°24'2322.6 1011.7 21.6
2017-May-18 09:00N 41°00' E 011°06'2020.1 1011.4 21.0
2017-May-18 08:00N 41°18' E 010°54'2222.5 1011.3 20.8
2017-May-18 07:00N 41°36' E 010°36'2222.5 1011.2 19.7
2017-May-18 06:00N 41°54' E 010°18'2222.4 1010.9 19.6
2017-May-18 05:00N 42°12' E 010°00'2424.4 1010.8 19.9
2017-May-18 04:00N 42°36' E 009°54'2424.4 1010.7 19.8
2017-May-18 03:00N 43°00' E 010°00'2020.0 1010.9 19.9
2017-May-18 02:00N 43°18' E 009°48'2222.2 1011.1 20.1
2017-May-18 01:00N 43°36' E 009°30'2625.5 1010.8 21.1
2017-May-18 00:00N 44°00' E 009°18'2222.2 1011.8 20.9
2017-May-17 23:00N 44°18' E 009°00'6 1.0 1012.7 20.8
2017-May-17 17:00N 44°24' E 009°00'2525.5 1013.6 23.2
2017-May-17 16:00N 44°00' E 009°12'2222.2 1013.5 22.4
2017-May-17 15:00N 43°42' E 009°30'2222.2 1013.6 23.0
2017-May-17 14:00N 43°24' E 009°48'2020.0 1013.9 22.0
2017-May-17 13:00N 43°06' E 010°00'2424.4 1014.3 22.7
2017-May-17 12:00N 42°42' E 010°06'2121.4 1014.5 21.9
2017-May-17 11:00N 42°30' E 010°30'2625.6 1014.9 22.6
2017-May-17 10:00N 42°06' E 010°42'2020.1 1015.0 21.4
2017-May-17 09:00N 41°48' E 010°54'2222.5 1015.3 21.1
2017-May-17 08:00N 41°30' E 011°12'2625.6 1015.2 20.2
2017-May-17 07:00N 41°06' E 011°24'2020.2 1014.8 19.9
2017-May-17 06:00N 40°48' E 011°36'2827.6 1015.0 20.1
2017-May-17 05:00N 40°24' E 011°54'2020.2 1014.8 19.4
2017-May-17 04:00N 40°06' E 012°06'2020.2 1014.9 19.3
2017-May-17 03:00N 39°48' E 012°18'2625.7 1014.9 19.7
2017-May-17 02:00N 39°24' E 012°30'2322.8 1014.6 20.0
2017-May-17 01:00N 39°06' E 012°48'2020.3 1015.0 20.2
2017-May-17 00:00N 38°48' E 013°00'2625.8 1015.2 19.8
2017-May-16 23:00N 38°24' E 013°12'2020.3 1016.0 19.7
2017-May-16 22:00N 38°06' E 013°24'0 0.0 1016.5 19.4
2017-May-16 18:00N 38°06' E 013°24'0 0.0 1015.8 19.9
2017-May-16 17:00N 38°06' E 013°24'1312.9 1015.5 20.6
2017-May-16 16:00N 38°18' E 013°18'2020.3 1015.4 21.3
2017-May-16 15:00N 38°36' E 013°06'2827.8 1015.6 21.7
2017-May-16 14:00N 39°00' E 012°48'2322.8 1015.9 21.8
2017-May-16 13:00N 39°18' E 012°30'2322.7 1016.6 22.4
2017-May-16 12:00N 39°36' E 012°12'2020.2 1017.2 22.1
2017-May-16 11:00N 39°54' E 012°00'2827.7 1017.6 21.9
2017-May-16 10:00N 40°18' E 011°42'2020.2 1017.8 21.2
2017-May-16 09:00N 40°36' E 011°30'2322.6 1018.0 20.0
2017-May-16 08:00N 40°54' E 011°12'2322.5 1018.1 19.3
2017-May-16 07:00N 41°12' E 010°54'2322.5 1018.2 19.0
2017-May-16 06:00N 41°30' E 010°36'2625.6 1018.5 18.8
2017-May-16 05:00N 41°54' E 010°24'2222.4 1018.7 19.0
2017-May-16 04:00N 42°12' E 010°06'2020.1 1019.5 17.8
2017-May-16 03:00N 42°30' E 009°54'2424.4 1019.7 18.0
2017-May-16 02:00N 42°54' E 010°00'2625.5 1019.8 17.9
2017-May-16 01:00N 43°18' E 009°48'2222.2 1019.9 17.8
2017-May-16 00:00N 43°36' E 009°30'2222.2 1020.4 17.9
2017-May-15 23:00N 43°54' E 009°12'2020.0 1020.6 18.0
2017-May-15 22:00N 44°12' E 009°00'   1020.5 18.8

Dump ship's entire track history